createdAt,value
2019-06-15T00:00:05.795Z,90.70
2019-06-15T00:02:34.394Z,90.20
2019-06-15T00:05:02.951Z,89.90
2019-06-15T00:07:31.595Z,89.40
2019-06-15T00:10:00.193Z,88.80
2019-06-15T00:12:28.777Z,88.50
2019-06-15T00:14:57.336Z,88.20
2019-06-15T00:17:25.950Z,87.90
2019-06-15T00:19:54.582Z,87.60
2019-06-15T00:22:23.263Z,87.50
2019-06-15T00:24:51.937Z,87.20
2019-06-15T00:27:20.500Z,87.00
2019-06-15T00:29:50.956Z,86.80
2019-06-15T00:32:19.577Z,86.70
2019-06-15T00:34:48.125Z,86.70
2019-06-15T00:37:16.694Z,86.50
2019-06-15T00:39:45.358Z,86.60
2019-06-15T00:42:13.962Z,86.60
2019-06-15T00:44:42.778Z,86.70
2019-06-15T00:47:11.392Z,86.70
2019-06-15T00:49:39.962Z,86.70
2019-06-15T00:52:08.534Z,86.80
2019-06-15T00:54:49.685Z,86.70
2019-06-15T00:57:07.372Z,86.50
2019-06-15T00:59:35.929Z,86.60
2019-06-15T01:02:04.597Z,86.70
2019-06-15T01:04:33.152Z,86.90
2019-06-15T01:07:01.723Z,86.80
2019-06-15T01:09:30.317Z,86.80
2019-06-15T01:11:58.877Z,86.90
2019-06-15T01:14:27.434Z,86.80
2019-06-15T01:16:56.085Z,86.80
2019-06-15T01:19:32.145Z,86.90
2019-06-15T01:22:00.890Z,87.10
2019-06-15T01:24:29.475Z,87.10
2019-06-15T01:26:58.104Z,87.10
2019-06-15T01:29:26.686Z,87.20
2019-06-15T01:31:55.253Z,87.10
2019-06-15T01:34:24.085Z,87.20
2019-06-15T01:36:52.806Z,87.30
2019-06-15T01:39:21.326Z,87.30
2019-06-15T01:41:49.889Z,87.40
2019-06-15T01:44:18.489Z,87.40
2019-06-15T01:46:47.106Z,87.50
2019-06-15T01:49:15.715Z,87.50
2019-06-15T01:51:44.505Z,87.90
2019-06-15T01:54:13.087Z,87.80
2019-06-15T01:56:41.791Z,88.00
2019-06-15T01:59:10.367Z,88.10
2019-06-15T02:01:38.944Z,87.90
2019-06-15T02:04:07.572Z,87.80
2019-06-15T02:06:36.251Z,87.70
2019-06-15T02:09:08.222Z,87.70
2019-06-15T02:11:36.918Z,87.90
2019-06-15T02:14:05.948Z,88.10
2019-06-15T02:16:34.534Z,88.70
2019-06-15T02:19:03.218Z,88.20
2019-06-15T02:21:31.908Z,88.30
2019-06-15T02:24:00.466Z,88.40
2019-06-15T02:26:29.320Z,88.40
2019-06-15T02:28:57.989Z,88.40
2019-06-15T02:31:26.562Z,88.70
2019-06-15T02:33:55.217Z,88.80
2019-06-15T02:36:23.788Z,88.80
2019-06-15T02:38:52.426Z,88.90
2019-06-15T02:41:21.215Z,89.60
2019-06-15T02:43:49.883Z,88.90
2019-06-15T02:46:18.584Z,89.00
2019-06-15T02:48:47.227Z,89.10
2019-06-15T02:51:15.956Z,89.10
2019-06-15T02:53:45.533Z,89.10
2019-06-15T02:56:14.375Z,89.30
2019-06-15T02:58:43.075Z,89.30
2019-06-15T03:01:11.696Z,89.40
2019-06-15T03:03:40.287Z,89.30
2019-06-15T03:06:08.922Z,89.40
2019-06-15T03:08:38.031Z,89.40
2019-06-15T03:11:06.703Z,89.40
2019-06-15T03:13:36.159Z,89.40
2019-06-15T03:16:06.091Z,89.40
2019-06-15T03:18:34.725Z,89.50
2019-06-15T03:21:03.445Z,89.50
2019-06-15T03:23:32.065Z,89.60
2019-06-15T03:26:05.474Z,89.60
2019-06-15T03:28:30.975Z,89.60
2019-06-15T03:30:59.554Z,89.60
2019-06-15T03:33:28.354Z,89.60
2019-06-15T03:35:56.988Z,89.70
2019-06-15T03:38:25.657Z,89.90
2019-06-15T03:40:54.252Z,89.90
2019-06-15T03:43:22.815Z,89.90
2019-06-15T03:45:51.376Z,90.00
2019-06-15T03:48:19.975Z,90.00
2019-06-15T03:50:48.535Z,90.00
2019-06-15T03:53:17.112Z,90.10
2019-06-15T03:55:46.577Z,90.20
2019-06-15T03:58:15.144Z,90.20
2019-06-15T04:00:58.908Z,90.20
2019-06-15T04:03:27.526Z,90.20
2019-06-15T04:05:56.105Z,90.30
2019-06-15T04:08:24.692Z,90.30
2019-06-15T04:10:53.270Z,90.20
2019-06-15T04:13:21.820Z,90.30
2019-06-15T04:15:50.436Z,90.30
2019-06-15T04:18:19.092Z,90.20
2019-06-15T04:20:47.686Z,90.30
2019-06-15T04:23:16.318Z,90.20
2019-06-15T04:25:44.892Z,90.20
2019-06-15T04:28:13.544Z,90.10
2019-06-15T04:30:43.438Z,90.20
2019-06-15T04:33:12.037Z,90.30
2019-06-15T04:35:40.683Z,90.40
2019-06-15T04:38:09.244Z,90.40
2019-06-15T04:40:37.836Z,90.60
2019-06-15T04:43:06.380Z,90.60
2019-06-15T04:45:34.973Z,90.60
2019-06-15T04:48:03.592Z,90.70
2019-06-15T04:50:32.150Z,90.70
2019-06-15T04:53:00.725Z,90.70
2019-06-15T04:55:29.283Z,91.50
2019-06-15T04:57:58.785Z,91.20
2019-06-15T05:00:27.508Z,91.30
2019-06-15T05:02:56.246Z,91.70
2019-06-15T05:05:24.823Z,91.60
2019-06-15T05:07:53.821Z,91.80
2019-06-15T05:10:22.403Z,92.00
2019-06-15T05:12:50.987Z,92.00
2019-06-15T05:15:19.871Z,91.90
2019-06-15T05:17:54.297Z,91.90
2019-06-15T05:20:22.921Z,92.50
2019-06-15T05:22:51.537Z,93.60
2019-06-15T05:25:20.249Z,94.20
2019-06-15T05:27:48.916Z,94.30
2019-06-15T05:30:17.815Z,93.90
2019-06-15T05:32:46.504Z,93.60
2019-06-15T05:35:15.392Z,93.70
2019-06-15T05:37:43.961Z,93.10
2019-06-15T05:40:12.785Z,92.70
2019-06-15T05:42:41.362Z,92.50
2019-06-15T05:45:10.684Z,92.10
2019-06-15T05:47:43.222Z,92.10
2019-06-15T05:50:13.536Z,91.80
2019-06-15T05:52:42.285Z,91.80
2019-06-15T05:55:11.085Z,91.60
2019-06-15T05:57:39.663Z,91.40
2019-06-15T06:00:10.398Z,91.20
2019-06-15T06:02:38.961Z,91.20
2019-06-15T06:05:07.972Z,91.10
2019-06-15T06:07:36.537Z,91.90
2019-06-15T06:10:09.915Z,91.40
2019-06-15T06:12:37.592Z,91.40
2019-06-15T06:15:09.897Z,91.60
2019-06-15T06:17:38.512Z,91.90
2019-06-15T06:20:08.858Z,91.70
2019-06-15T06:22:37.410Z,92.00
2019-06-15T06:25:08.274Z,92.00
2019-06-15T06:27:37.092Z,92.00
2019-06-15T06:30:09.847Z,92.10
2019-06-15T06:32:38.465Z,91.60
2019-06-15T06:35:08.419Z,91.70
2019-06-15T06:37:37.020Z,91.50
2019-06-15T06:40:08.696Z,90.80
2019-06-15T06:42:37.408Z,91.10
2019-06-15T06:45:08.884Z,91.30
2019-06-15T06:47:37.462Z,91.60
2019-06-15T06:50:10.103Z,92.00
2019-06-15T06:52:38.663Z,92.20
2019-06-15T06:55:07.859Z,92.20
2019-06-15T06:57:50.767Z,92.40
2019-06-15T07:00:07.498Z,92.30
2019-06-15T07:02:36.939Z,92.20
2019-06-15T07:05:06.983Z,92.30
2019-06-15T07:07:35.691Z,92.20
2019-06-15T07:10:07.247Z,92.00
2019-06-15T07:12:35.969Z,92.10
2019-06-15T07:15:06.153Z,92.30
2019-06-15T07:17:34.763Z,92.40
2019-06-15T07:20:05.328Z,92.60
2019-06-15T07:22:33.929Z,92.80
2019-06-15T07:25:02.559Z,92.80
2019-06-15T07:27:31.143Z,92.50
2019-06-15T07:29:59.695Z,91.80
2019-06-15T07:32:28.357Z,91.60
2019-06-15T07:34:56.968Z,92.00
2019-06-15T07:37:25.505Z,92.10
2019-06-15T07:39:54.062Z,93.00
2019-06-15T07:42:22.656Z,93.20
2019-06-15T07:44:51.283Z,93.00
2019-06-15T07:47:19.885Z,93.20
2019-06-15T07:49:48.623Z,92.90
2019-06-15T07:52:17.176Z,93.10
2019-06-15T07:54:45.763Z,92.90
2019-06-15T07:57:14.354Z,92.50
2019-06-15T07:59:43.051Z,92.30
2019-06-15T08:02:11.674Z,92.00
2019-06-15T08:04:41.451Z,91.90
2019-06-15T08:07:10.081Z,92.10
2019-06-15T08:09:38.654Z,91.80
2019-06-15T08:12:07.397Z,91.60
2019-06-15T08:14:36.058Z,91.10
2019-06-15T08:17:04.693Z,90.70
2019-06-15T08:19:33.272Z,90.80
2019-06-15T08:22:01.851Z,90.90
2019-06-15T08:24:30.406Z,91.00
2019-06-15T08:26:59.067Z,91.20
2019-06-15T08:29:27.682Z,91.10
2019-06-15T08:31:56.297Z,91.20
2019-06-15T08:34:25.266Z,91.40
2019-06-15T08:36:53.915Z,91.10
2019-06-15T08:39:22.807Z,91.30
2019-06-15T08:41:51.379Z,91.10
2019-06-15T08:44:19.959Z,91.40
2019-06-15T08:46:48.564Z,91.50
2019-06-15T08:49:17.187Z,91.60
2019-06-15T08:51:46.173Z,91.20
2019-06-15T08:54:14.761Z,91.40
2019-06-15T08:56:43.332Z,91.40
2019-06-15T08:59:11.880Z,91.10
2019-06-15T09:01:40.483Z,90.90
2019-06-15T09:04:09.050Z,90.30
2019-06-15T09:06:38.597Z,90.50
2019-06-15T09:09:08.614Z,90.80
2019-06-15T09:11:37.184Z,90.60
2019-06-15T09:14:06.619Z,90.90
2019-06-15T09:16:35.177Z,91.00
2019-06-15T09:19:03.755Z,90.90
2019-06-15T09:21:32.353Z,90.70
2019-06-15T09:24:00.934Z,89.70
2019-06-15T09:26:29.592Z,88.40
2019-06-15T09:29:10.354Z,89.30
2019-06-15T09:31:28.419Z,88.50
2019-06-15T09:33:57.013Z,88.40
2019-06-15T09:36:25.577Z,89.60
2019-06-15T09:38:54.924Z,90.00
2019-06-15T09:41:23.549Z,90.00
2019-06-15T09:43:52.176Z,90.40
2019-06-15T09:46:21.129Z,90.40
2019-06-15T09:48:49.651Z,90.20
2019-06-15T09:51:18.278Z,90.10
2019-06-15T09:53:46.864Z,89.40
2019-06-15T09:56:15.508Z,90.00
2019-06-15T09:58:44.088Z,89.50
2019-06-15T10:01:12.704Z,90.20
2019-06-15T10:03:41.284Z,90.00
2019-06-15T10:06:11.666Z,89.70
2019-06-15T10:08:40.878Z,90.30
2019-06-15T10:11:18.172Z,90.60
2019-06-15T10:13:46.735Z,90.30
2019-06-15T10:16:15.410Z,89.80
2019-06-15T10:18:43.985Z,89.30
2019-06-15T10:21:12.546Z,90.00
2019-06-15T10:23:41.156Z,88.60
2019-06-15T10:26:09.788Z,88.40
2019-06-15T10:28:38.678Z,89.20
2019-06-15T10:31:07.345Z,89.30
2019-06-15T10:33:35.897Z,90.10
2019-06-15T10:36:04.576Z,88.70
2019-06-15T10:38:33.127Z,89.90
2019-06-15T10:41:01.689Z,89.60
2019-06-15T10:43:30.285Z,89.40
2019-06-15T10:45:58.992Z,89.40
2019-06-15T10:48:27.616Z,89.50
2019-06-15T10:50:56.212Z,90.10
2019-06-15T10:53:24.787Z,90.10
2019-06-15T10:55:53.390Z,89.50
2019-06-15T10:58:21.944Z,89.10
2019-06-15T11:00:50.585Z,90.00
2019-06-15T11:03:19.315Z,89.40
2019-06-15T11:05:47.886Z,89.00
2019-06-15T11:08:16.575Z,88.10
2019-06-15T11:10:54.907Z,88.50
2019-06-15T11:13:23.640Z,87.70
2019-06-15T11:15:52.528Z,88.20
2019-06-15T11:18:28.532Z,88.70
2019-06-15T11:20:58.933Z,88.40
2019-06-15T11:23:27.328Z,88.60
2019-06-15T11:25:55.948Z,88.80
2019-06-15T11:28:24.598Z,88.20
2019-06-15T11:30:53.160Z,88.70
2019-06-15T11:33:21.755Z,88.30
2019-06-15T11:35:50.503Z,89.30
2019-06-15T11:38:19.231Z,90.00
2019-06-15T11:40:47.943Z,90.00
2019-06-15T11:43:16.918Z,90.30
2019-06-15T11:45:46.739Z,90.30
2019-06-15T11:48:15.414Z,90.60
2019-06-15T11:50:44.098Z,89.90
2019-06-15T11:53:13.087Z,89.60
2019-06-15T11:55:41.696Z,88.80
2019-06-15T11:58:10.457Z,89.50
2019-06-15T12:00:42.243Z,89.20
2019-06-15T12:03:11.274Z,88.70
2019-06-15T12:05:39.834Z,89.10
2019-06-15T12:08:08.488Z,89.20
2019-06-15T12:10:37.129Z,88.60
2019-06-15T12:13:05.703Z,89.70
2019-06-15T12:15:34.401Z,90.00
2019-06-15T12:18:03.132Z,89.10
2019-06-15T12:20:31.756Z,88.80
2019-06-15T12:23:00.471Z,87.70
2019-06-15T12:25:29.138Z,88.40
2019-06-15T12:27:58.239Z,88.90
2019-06-15T12:30:47.067Z,88.40
2019-06-15T12:33:11.578Z,88.50
2019-06-15T12:35:40.187Z,88.20
2019-06-15T12:38:09.022Z,87.80
2019-06-15T12:40:37.854Z,88.00
2019-06-15T12:43:06.360Z,87.60
2019-06-15T12:45:35.769Z,87.00
2019-06-15T12:48:04.494Z,87.30
2019-06-15T12:50:33.062Z,86.20
2019-06-15T12:53:01.669Z,86.50
2019-06-15T12:55:30.923Z,86.90
2019-06-15T12:58:00.064Z,86.10
2019-06-15T13:00:38.895Z,85.60
2019-06-15T13:03:07.613Z,86.30
2019-06-15T13:05:36.240Z,86.10
2019-06-15T13:08:05.057Z,86.40
2019-06-15T13:10:33.703Z,86.20
2019-06-15T13:13:02.265Z,86.40
2019-06-15T13:15:30.937Z,86.50
2019-06-15T13:18:00.387Z,86.80
2019-06-15T13:20:29.988Z,86.80
2019-06-15T13:22:59.012Z,87.20
2019-06-15T13:25:27.822Z,86.50
2019-06-15T13:27:56.711Z,85.20
2019-06-15T13:30:25.354Z,85.90
2019-06-15T13:32:53.911Z,84.30
2019-06-15T13:35:22.534Z,84.10
2019-06-15T13:37:51.139Z,84.60
2019-06-15T13:40:19.771Z,84.40
2019-06-15T13:42:48.363Z,84.60
2019-06-15T13:45:18.573Z,84.30
2019-06-15T13:47:47.124Z,84.00
2019-06-15T13:50:15.807Z,84.10
2019-06-15T13:52:44.571Z,84.10
2019-06-15T13:55:13.509Z,84.00
2019-06-15T13:57:42.124Z,84.00
2019-06-15T14:00:11.870Z,84.10
2019-06-15T14:02:40.435Z,84.50
2019-06-15T14:05:09.123Z,83.90
2019-06-15T14:07:37.731Z,83.20
2019-06-15T14:10:06.811Z,82.80
2019-06-15T14:12:35.574Z,82.10
2019-06-15T14:15:07.078Z,81.50
2019-06-15T14:17:39.700Z,82.40
2019-06-15T14:20:07.353Z,82.40
2019-06-15T14:22:36.165Z,82.00
2019-06-15T14:25:07.752Z,81.70
2019-06-15T14:27:36.699Z,82.00
2019-06-15T14:30:09.378Z,82.00
2019-06-15T14:32:38.226Z,81.60
2019-06-15T14:35:10.490Z,81.40
2019-06-15T14:37:39.070Z,81.10
2019-06-15T14:40:08.196Z,80.10
2019-06-15T14:42:36.821Z,79.60
2019-06-15T14:45:07.523Z,79.00
2019-06-15T14:47:36.238Z,79.30
2019-06-15T14:50:06.253Z,79.70
2019-06-15T14:52:34.856Z,79.90
2019-06-15T14:55:03.554Z,80.10
2019-06-15T14:57:32.108Z,79.60
2019-06-15T15:00:05.131Z,79.20
2019-06-15T15:02:31.106Z,78.10
2019-06-15T15:04:59.648Z,79.10
2019-06-15T15:07:28.296Z,78.10
2019-06-15T15:09:56.940Z,77.70
2019-06-15T15:12:26.583Z,77.50
2019-06-15T15:14:56.619Z,77.90
2019-06-15T15:17:26.826Z,78.80
2019-06-15T15:19:57.388Z,78.10
2019-06-15T15:22:29.490Z,78.10
2019-06-15T15:24:58.186Z,77.40
2019-06-15T15:27:27.305Z,77.70
2019-06-15T15:29:57.003Z,76.90
2019-06-15T15:32:31.323Z,76.40
2019-06-15T15:34:56.203Z,75.60
2019-06-15T15:37:26.894Z,75.70
2019-06-15T15:39:56.548Z,74.70
2019-06-15T15:42:26.940Z,74.60
2019-06-15T15:44:56.491Z,74.70
2019-06-15T15:47:27.562Z,75.10
2019-06-15T15:49:57.578Z,75.00
2019-06-15T15:52:27.077Z,74.90
2019-06-15T15:54:56.501Z,74.30
2019-06-15T15:57:26.663Z,74.80
2019-06-15T15:59:56.319Z,72.70
2019-06-15T16:02:35.702Z,73.00
2019-06-15T16:04:57.508Z,73.30
2019-06-15T16:07:27.709Z,73.90
2019-06-15T16:09:56.117Z,73.40
2019-06-15T16:12:24.674Z,73.40
2019-06-15T16:14:56.544Z,74.20
2019-06-15T16:17:26.856Z,74.10
2019-06-15T16:19:56.437Z,73.50
2019-06-15T16:22:26.350Z,72.90
2019-06-15T16:24:58.384Z,72.90
2019-06-15T16:27:27.271Z,74.30
2019-06-15T16:29:58.619Z,75.40
2019-06-15T16:32:27.136Z,76.00
2019-06-15T16:34:55.922Z,76.50
2019-06-15T16:37:26.016Z,76.90
2019-06-15T16:39:54.658Z,77.10
2019-06-15T16:42:26.754Z,76.20
2019-06-15T16:44:56.155Z,74.40
2019-06-15T16:47:27.184Z,73.70
2019-06-15T16:49:56.708Z,72.90
2019-06-15T16:52:26.938Z,71.70
2019-06-15T16:54:59.311Z,70.60
2019-06-15T16:57:27.872Z,70.90
2019-06-15T16:59:56.609Z,70.40
2019-06-15T17:02:26.102Z,71.10
2019-06-15T17:04:56.861Z,72.40
2019-06-15T17:07:26.281Z,73.70
2019-06-15T17:09:56.860Z,74.30
2019-06-15T17:12:26.100Z,73.70
2019-06-15T17:14:54.724Z,72.80
2019-06-15T17:17:23.313Z,72.50
2019-06-15T17:19:54.120Z,71.80
2019-06-15T17:22:22.752Z,70.80
2019-06-15T17:24:51.610Z,70.10
2019-06-15T17:27:20.292Z,69.90
2019-06-15T17:29:48.833Z,69.30
2019-06-15T17:32:17.486Z,68.40
2019-06-15T17:34:46.892Z,67.10
2019-06-15T17:37:17.233Z,67.10
2019-06-15T17:39:46.650Z,67.70
2019-06-15T17:42:16.390Z,68.00
2019-06-15T17:44:46.150Z,68.20
2019-06-15T17:47:16.974Z,68.20
2019-06-15T17:49:46.887Z,67.90
2019-06-15T17:52:16.843Z,67.30
2019-06-15T17:54:46.650Z,67.20
2019-06-15T17:57:15.411Z,66.80
2019-06-15T17:59:46.867Z,66.60
2019-06-15T18:02:16.944Z,66.50
2019-06-15T18:04:47.357Z,66.60
2019-06-15T18:07:16.953Z,66.90
2019-06-15T18:09:46.592Z,67.80
2019-06-15T18:12:16.756Z,69.10
2019-06-15T18:14:46.390Z,70.00
2019-06-15T18:17:17.181Z,70.50
2019-06-15T18:19:47.133Z,70.80
2019-06-15T18:22:21.596Z,71.50
2019-06-15T18:24:50.806Z,71.10
2019-06-15T18:27:21.581Z,71.50
2019-06-15T18:29:50.113Z,72.10
2019-06-15T18:32:18.684Z,72.30
2019-06-15T18:34:47.343Z,73.10
2019-06-15T18:37:17.293Z,73.40
2019-06-15T18:39:47.713Z,73.70
2019-06-15T18:42:16.600Z,73.70
2019-06-15T18:44:47.851Z,74.00
2019-06-15T18:47:17.046Z,74.00
2019-06-15T18:49:47.304Z,74.00
2019-06-15T18:52:17.594Z,74.60
2019-06-15T18:54:47.788Z,75.00
2019-06-15T18:57:17.636Z,75.40
2019-06-15T18:59:47.885Z,75.40
2019-06-15T19:02:16.471Z,75.40
2019-06-15T19:04:45.168Z,75.80
2019-06-15T19:07:16.054Z,75.40
2019-06-15T19:09:46.448Z,75.90
2019-06-15T19:12:16.945Z,76.80
2019-06-15T19:14:46.929Z,77.20
2019-06-15T19:17:16.536Z,77.50
2019-06-15T19:19:46.796Z,78.00
2019-06-15T19:22:17.169Z,78.10
2019-06-15T19:24:50.277Z,78.20
2019-06-15T19:27:17.062Z,78.20
2019-06-15T19:29:46.549Z,78.30
2019-06-15T19:32:17.283Z,78.50
2019-06-15T19:34:50.467Z,78.80
2019-06-15T19:37:16.792Z,78.90
2019-06-15T19:39:47.848Z,79.10
2019-06-15T19:42:25.899Z,79.30
2019-06-15T19:44:56.171Z,79.30
2019-06-15T19:47:26.520Z,79.70
2019-06-15T19:49:56.819Z,80.00
2019-06-15T19:52:27.213Z,80.10
2019-06-15T19:54:55.827Z,80.60
2019-06-15T19:57:24.391Z,81.30
2019-06-15T19:59:53.382Z,81.80
2019-06-15T20:02:22.455Z,82.30
2019-06-15T20:05:00.262Z,82.70
2019-06-15T20:07:21.213Z,82.90
2019-06-15T20:09:49.756Z,83.10
2019-06-15T20:12:21.862Z,83.20
2019-06-15T20:14:48.561Z,83.10
2019-06-15T20:17:17.594Z,83.10
2019-06-15T20:19:46.466Z,82.90
2019-06-15T20:22:17.636Z,82.70
2019-06-15T20:24:47.477Z,82.60
2019-06-15T20:27:16.428Z,82.70
2019-06-15T20:29:47.545Z,82.70
2019-06-15T20:32:17.367Z,83.00
2019-06-15T20:34:46.409Z,82.90
2019-06-15T20:37:16.893Z,83.20
2019-06-15T20:39:46.736Z,83.70
2019-06-15T20:42:16.443Z,83.90
2019-06-15T20:44:46.243Z,83.70
2019-06-15T20:47:15.165Z,83.80
2019-06-15T20:49:46.299Z,83.80
2019-06-15T20:52:16.542Z,84.10
2019-06-15T20:54:46.442Z,84.40
2019-06-15T20:57:16.528Z,84.70
2019-06-15T20:59:47.296Z,84.40
2019-06-15T21:02:16.120Z,84.40
2019-06-15T21:04:44.744Z,85.00
2019-06-15T21:07:16.020Z,85.40
2019-06-15T21:09:43.592Z,85.60
2019-06-15T21:12:12.195Z,85.60
2019-06-15T21:14:40.763Z,85.80
2019-06-15T21:17:09.323Z,87.10
2019-06-15T21:19:37.944Z,86.70
2019-06-15T21:22:06.610Z,87.40
2019-06-15T21:24:37.384Z,87.90
2019-06-15T21:27:06.433Z,88.40
2019-06-15T21:29:36.962Z,89.00
2019-06-15T21:32:05.905Z,89.80
2019-06-15T21:34:36.230Z,89.70
2019-06-15T21:37:06.588Z,89.90
2019-06-15T21:39:36.499Z,89.70
2019-06-15T21:42:05.552Z,89.80
2019-06-15T21:44:36.082Z,89.70
2019-06-15T21:47:06.736Z,89.40
2019-06-15T21:49:35.870Z,89.10
2019-06-15T21:52:07.175Z,89.20
2019-06-15T21:54:36.011Z,89.30
2019-06-15T21:57:07.098Z,90.00
2019-06-15T21:59:37.032Z,90.30
2019-06-15T22:02:06.929Z,90.50
2019-06-15T22:04:36.827Z,90.40
2019-06-15T22:07:06.477Z,90.30
2019-06-15T22:09:36.353Z,90.20
2019-06-15T22:12:06.874Z,90.30
2019-06-15T22:14:35.525Z,90.40
2019-06-15T22:17:06.587Z,90.50
2019-06-15T22:19:36.710Z,90.60
2019-06-15T22:22:06.809Z,90.80
2019-06-15T22:24:36.302Z,91.40
2019-06-15T22:27:06.626Z,91.90
2019-06-15T22:29:36.473Z,91.80
2019-06-15T22:32:06.916Z,91.80
2019-06-15T22:34:36.429Z,91.70
2019-06-15T22:37:06.873Z,91.80
2019-06-15T22:39:37.117Z,91.80
2019-06-15T22:42:07.009Z,91.90
2019-06-15T22:44:37.278Z,92.00
2019-06-15T22:47:06.924Z,92.30
2019-06-15T22:49:36.032Z,92.60
2019-06-15T22:52:06.520Z,93.10
2019-06-15T22:54:37.350Z,93.10
2019-06-15T22:57:06.189Z,93.40
2019-06-15T22:59:34.900Z,93.50
2019-06-15T23:02:03.494Z,94.00
2019-06-15T23:04:32.024Z,94.50
2019-06-15T23:07:00.689Z,94.90
2019-06-15T23:09:29.261Z,95.50
2019-06-15T23:11:57.823Z,95.90
2019-06-15T23:14:26.407Z,96.30
2019-06-15T23:16:56.764Z,96.40
2019-06-15T23:19:26.192Z,96.40
2019-06-15T23:21:56.992Z,96.40
2019-06-15T23:24:27.265Z,96.40
2019-06-15T23:26:57.067Z,96.60
2019-06-15T23:29:27.079Z,96.60
2019-06-15T23:31:57.198Z,96.00
2019-06-15T23:34:27.056Z,95.70
2019-06-15T23:37:00.741Z,95.10
2019-06-15T23:39:27.783Z,94.20
2019-06-15T23:41:56.400Z,93.90
2019-06-15T23:44:27.051Z,93.50
2019-06-15T23:46:55.250Z,93.00
2019-06-15T23:49:23.814Z,92.70
2019-06-15T23:51:52.733Z,92.90
2019-06-15T23:54:21.317Z,92.80
2019-06-15T23:56:49.881Z,92.80
2019-06-15T23:59:18.668Z,92.50
